Time;durP1;ratioP1;P1;durP2;ratioP2;P2;SDS_P1;SDS_P2;PMS_P1;PMS_P2;Temp;Humidity;BMP_temperature;BMP_pressure;BME280_temperature;BME280_humidity;BME280_pressure;Samples;Min_cycle;Max_cycle;Signal;HPM_P1;HPM_P2
2021/05/23 00:00:24;;;;;;;3.90;2.22;;;;;;;16.40;67.48;99062.47;1768823;79;21624;-42
2021/05/23 00:02:53;;;;;;;4.03;2.00;;;;;;;16.47;67.37;99070.59;1765754;79;21691;-42
2021/05/23 00:05:22;;;;;;;3.52;1.70;;;;;;;16.52;67.34;99063.90;1786094;79;21088;-42
2021/05/23 00:08:04;;;;;;;3.70;2.17;;;;;;;16.54;67.12;99062.91;1781559;79;21843;-42
2021/05/23 00:10:34;;;;;;;3.15;1.77;;;;;;;16.58;67.03;99061.50;1799940;79;21013;-42
2021/05/23 00:13:03;;;;;;;4.10;1.67;;;;;;;16.54;66.94;99061.55;1794097;79;21011;-42
2021/05/23 00:15:45;;;;;;;1.82;1.65;;;;;;;16.56;67.00;99061.13;1803383;78;21030;-42
2021/05/23 00:18:13;;;;;;;2.62;1.75;;;;;;;16.59;66.97;99066.61;1786113;79;21077;-42
2021/05/23 00:20:40;;;;;;;3.60;1.72;;;;;;;16.61;66.99;99066.96;1794481;79;21046;-42
2021/05/23 00:23:09;;;;;;;5.42;1.80;;;;;;;16.56;67.00;99077.54;1795080;79;20943;-42
2021/05/23 00:25:36;;;;;;;3.52;2.10;;;;;;;16.45;67.17;99072.20;1791994;79;20991;-42
2021/05/23 00:28:04;;;;;;;4.62;1.87;;;;;;;16.32;67.56;99072.48;1802498;79;20999;-42
2021/05/23 00:30:31;;;;;;;7.20;1.82;;;;;;;16.17;67.99;99077.30;1806905;79;21071;-42
2021/05/23 00:32:58;;;;;;;2.70;1.70;;;;;;;16.09;68.31;99079.33;1813493;79;20960;-42
2021/05/23 00:35:25;;;;;;;4.95;2.22;;;;;;;16.07;68.31;99083.05;1791829;79;21227;-42
2021/05/23 00:37:52;;;;;;;3.65;1.82;;;;;;;16.13;68.38;99074.41;1784007;79;21057;-42
2021/05/23 00:40:19;;;;;;;3.00;1.80;;;;;;;16.15;68.34;99065.22;1809942;79;21083;-42
2021/05/23 00:42:46;;;;;;;4.15;2.00;;;;;;;16.17;68.24;99064.24;1809445;79;21498;-42
2021/05/23 00:45:16;;;;;;;3.22;1.87;;;;;;;16.15;68.34;99062.48;1782132;79;20971;-42
2021/05/23 00:47:44;;;;;;;2.83;1.72;;;;;;;16.12;68.32;99059.95;1783452;79;21014;-42
2021/05/23 00:50:16;;;;;;;2.72;1.52;;;;;;;16.16;68.29;99062.69;1782184;79;21105;-42
2021/05/23 00:52:43;;;;;;;5.78;1.85;;;;;;;16.22;68.05;99063.20;1810071;79;20998;-42
2021/05/23 00:55:11;;;;;;;4.58;1.67;;;;;;;16.27;67.92;99065.49;1799798;79;21006;-42
2021/05/23 00:57:38;;;;;;;4.33;2.12;;;;;;;16.30;67.91;99061.97;1783076;79;21003;-42
2021/05/23 01:00:07;;;;;;;4.97;2.27;;;;;;;16.31;68.02;99066.27;1781628;80;21608;-42
2021/05/23 01:02:44;;;;;;;4.85;2.20;;;;;;;16.33;67.87;99060.38;1783879;79;20988;-42
2021/05/23 01:05:18;;;;;;;5.03;1.98;;;;;;;16.30;67.84;99072.13;1778139;80;21067;-42
2021/05/23 01:07:45;;;;;;;4.80;1.90;;;;;;;16.31;67.47;99068.22;1792860;79;21060;-42
2021/05/23 01:10:17;;;;;;;2.77;2.20;;;;;;;16.31;67.39;99078.58;1808235;79;21632;-42
2021/05/23 01:13:00;;;;;;;3.87;3.12;;;;;;;16.32;67.38;99084.80;1786248;79;21051;-42
2021/05/23 01:15:40;;;;;;;3.17;2.85;;;;;;;16.28;67.45;99078.59;1780124;79;20995;-42
2021/05/23 01:18:21;;;;;;;4.37;3.08;;;;;;;16.21;67.59;99089.60;1765714;79;20989;-42
2021/05/23 01:20:56;;;;;;;7.33;3.10;;;;;;;16.12;67.69;99089.29;1794087;79;21064;-42
2021/05/23 01:23:30;;;;;;;3.85;2.80;;;;;;;15.99;67.97;99088.97;1792276;79;20932;-42
2021/05/23 01:26:09;;;;;;;3.25;2.95;;;;;;;15.94;68.32;99092.92;1795727;79;21027;-42
2021/05/23 01:28:44;;;;;;;4.47;3.10;;;;;;;15.97;68.26;99091.35;1784442;79;21582;-42
2021/05/23 01:31:16;;;;;;;4.22;2.98;;;;;;;15.96;68.17;99089.20;1775020;79;21190;-42
2021/05/23 01:33:43;;;;;;;3.35;2.52;;;;;;;15.91;68.20;99085.53;1778128;79;22217;-43
2021/05/23 01:36:10;;;;;;;4.90;2.90;;;;;;;15.89;68.47;99086.51;1791469;79;20924;-42
2021/05/23 01:38:37;;;;;;;3.17;2.87;;;;;;;15.87;68.26;99079.31;1764951;79;21032;-42
2021/05/23 01:41:06;;;;;;;3.80;2.83;;;;;;;15.80;68.37;99090.28;1779123;79;21553;-42
2021/05/23 01:43:34;;;;;;;6.15;2.10;;;;;;;15.74;68.59;99094.61;1771862;79;20960;-42
2021/05/23 01:46:01;;;;;;;2.33;2.08;;;;;;;15.67;68.60;99097.40;1776685;79;21465;-42
2021/05/23 01:48:29;;;;;;;4.83;2.30;;;;;;;15.67;68.67;99096.03;1776725;79;21549;-42
2021/05/23 01:50:57;;;;;;;4.40;2.08;;;;;;;15.65;68.66;99099.73;1789071;79;21090;-42
2021/05/23 01:53:24;;;;;;;4.00;2.20;;;;;;;15.62;68.80;99093.72;1778859;79;21592;-42
2021/05/23 01:55:52;;;;;;;3.60;1.82;;;;;;;15.60;68.87;99095.47;1771773;79;20964;-42
2021/05/23 01:58:19;;;;;;;3.27;2.00;;;;;;;15.65;69.03;99098.38;1766214;79;21187;-42
2021/05/23 02:00:48;;;;;;;2.72;1.70;;;;;;;15.68;68.94;99101.69;1771033;79;21019;-42
2021/05/23 02:03:16;;;;;;;4.08;2.17;;;;;;;15.72;68.66;99107.91;1794682;79;21078;-42
2021/05/23 02:05:55;;;;;;;4.28;1.82;;;;;;;15.73;68.71;99101.86;1776634;79;20936;-42
2021/05/23 02:08:24;;;;;;;3.12;1.77;;;;;;;15.72;68.70;99112.02;1749315;81;21028;-42
2021/05/23 02:10:53;;;;;;;2.65;2.12;;;;;;;15.65;68.72;99105.20;1767773;79;21738;-42
2021/05/23 02:13:20;;;;;;;3.75;2.30;;;;;;;15.58;68.85;99110.73;1774744;79;21653;-42
2021/05/23 02:15:48;;;;;;;2.55;2.02;;;;;;;15.53;69.05;99115.23;1774740;79;21007;-42
2021/05/23 02:18:16;;;;;;;2.77;1.80;;;;;;;15.46;69.38;99117.37;1775996;79;21620;-42
2021/05/23 02:20:43;;;;;;;3.47;1.70;;;;;;;15.41;69.43;99127.94;1785022;79;21539;-42
2021/05/23 02:23:20;;;;;;;6.25;1.98;;;;;;;15.32;69.66;99129.73;1770924;79;21080;-42
2021/05/23 02:25:47;;;;;;;2.00;1.82;;;;;;;15.22;70.06;99132.70;1772235;79;21079;-42
2021/05/23 02:28:15;;;;;;;2.65;1.75;;;;;;;15.13;70.56;99126.09;1800960;79;20963;-42
2021/05/23 02:30:49;;;;;;;1.85;1.47;;;;;;;15.09;70.89;99126.12;1797588;79;21617;-42
2021/05/23 02:33:17;;;;;;;2.02;1.57;;;;;;;15.10;70.94;99122.80;1772600;79;20998;-42
2021/05/23 02:35:46;;;;;;;3.08;1.72;;;;;;;15.11;70.94;99118.30;1774006;79;21712;-42
2021/05/23 02:38:15;;;;;;;5.15;2.05;;;;;;;15.13;70.89;99121.42;1789601;79;21664;-42
2021/05/23 02:40:42;;;;;;;4.30;1.92;;;;;;;15.13;70.86;99126.88;1799987;79;20991;-42
2021/05/23 02:43:10;;;;;;;3.33;1.80;;;;;;;15.12;70.70;99125.31;1773932;79;21322;-42
2021/05/23 02:45:38;;;;;;;3.72;1.98;;;;;;;15.13;70.64;99126.88;1772159;79;21063;-42
2021/05/23 02:48:08;;;;;;;3.70;1.92;;;;;;;15.15;70.40;99123.15;1782865;79;21067;-42
2021/05/23 02:50:38;;;;;;;2.12;1.70;;;;;;;15.27;70.23;99125.27;1793951;79;21034;-42
2021/05/23 02:53:08;;;;;;;4.10;2.40;;;;;;;15.36;69.89;99122.88;1802507;79;20960;-42
2021/05/23 02:55:38;;;;;;;2.60;2.15;;;;;;;15.39;69.69;99131.08;1793971;79;21027;-42
2021/05/23 02:58:06;;;;;;;3.70;2.15;;;;;;;15.39;69.60;99137.13;1771988;79;20988;-42
2021/05/23 03:00:34;;;;;;;3.47;2.00;;;;;;;15.40;69.42;99140.03;1774055;79;21074;-42
2021/05/23 03:03:02;;;;;;;3.05;2.20;;;;;;;15.09;69.49;99100.17;1802383;79;20944;-42
2021/05/23 03:05:28;;;;;;;2.25;1.67;;;;;;;15.36;69.33;99140.64;1790489;79;21530;-42
2021/05/23 03:07:56;;;;;;;2.50;2.05;;;;;;;15.40;69.03;99141.39;1789823;79;21010;-42
2021/05/23 03:10:27;;;;;;;4.45;1.87;;;;;;;15.42;69.03;99143.16;1800509;79;21055;-42
2021/05/23 03:12:55;;;;;;;3.77;1.90;;;;;;;15.44;68.91;99147.65;1796492;79;21063;-42
2021/05/23 03:15:26;;;;;;;2.80;1.72;;;;;;;15.44;68.84;99151.13;1788939;79;21640;-42
2021/05/23 03:17:54;;;;;;;2.62;1.60;;;;;;;15.40;69.10;99159.16;1792107;79;21532;-42
2021/05/23 03:20:22;;;;;;;5.45;1.90;;;;;;;15.35;69.27;99170.48;1775770;79;20994;-42
2021/05/23 03:22:52;;;;;;;2.95;2.08;;;;;;;15.37;69.54;99171.66;1778554;79;21028;-42
2021/05/23 03:25:19;;;;;;;2.30;1.80;;;;;;;15.37;69.61;99172.25;1795723;79;21662;-42
2021/05/23 03:27:46;;;;;;;3.17;1.90;;;;;;;15.33;69.47;99173.63;1801033;79;21042;-42
2021/05/23 03:30:16;;;;;;;2.77;1.90;;;;;;;15.27;69.66;99177.16;1802450;79;21525;-42
2021/05/23 03:32:44;;;;;;;4.67;1.90;;;;;;;15.21;69.53;99183.60;1778877;79;21961;-42
2021/05/23 03:35:13;;;;;;;4.28;1.70;;;;;;;15.10;69.62;99182.27;1796640;79;21062;-42
2021/05/23 03:37:40;;;;;;;3.22;1.87;;;;;;;15.07;69.73;99180.91;1800411;79;21094;-42
2021/05/23 03:40:09;;;;;;;4.05;2.15;;;;;;;15.06;69.95;99177.40;1773016;79;20936;-43
2021/05/23 03:42:35;;;;;;;3.60;2.00;;;;;;;15.07;69.91;99177.59;1796927;79;21579;-42
2021/05/23 03:45:06;;;;;;;2.55;2.10;;;;;;;15.04;69.91;99177.61;1798976;79;21011;-42
2021/05/23 03:47:34;;;;;;;4.42;2.05;;;;;;;15.02;70.12;99175.84;1800048;79;21006;-42
2021/05/23 03:50:01;;;;;;;4.00;1.95;;;;;;;14.99;70.19;99178.02;1799206;79;21805;-42
2021/05/23 03:52:29;;;;;;;3.12;2.00;;;;;;;14.96;70.32;99184.27;1798900;79;20932;-42
2021/05/23 03:54:56;;;;;;;5.22;2.17;;;;;;;14.97;70.34;99189.31;1799879;79;21536;-43
2021/05/23 03:57:23;;;;;;;3.58;2.40;;;;;;;15.00;70.63;99191.86;1798649;79;21063;-42
2021/05/23 03:59:49;;;;;;;3.67;2.02;;;;;;;15.02;70.67;99194.38;1776185;79;20968;-42
2021/05/23 04:02:16;;;;;;;3.87;2.37;;;;;;;15.03;70.94;99193.21;1777160;79;21868;-42
2021/05/23 04:04:56;;;;;;;5.67;2.42;;;;;;;15.06;71.00;99204.70;1801633;79;20987;-42
2021/05/23 04:07:19;;;;;;;4.42;2.00;;;;;;;15.12;70.82;99205.87;1775650;79;21015;-43
2021/05/23 04:09:48;;;;;;;2.20;1.80;;;;;;;15.18;70.48;99213.86;1778584;79;21561;-43
2021/05/23 04:12:19;;;;;;;4.08;2.27;;;;;;;15.25;70.59;99209.56;1776080;79;20996;-43
2021/05/23 04:14:44;;;;;;;3.80;2.02;;;;;;;15.30;70.31;99217.36;1787921;79;21071;-43
2021/05/23 04:17:11;;;;;;;5.05;1.90;;;;;;;15.30;70.14;99222.81;1745923;82;21572;-43
2021/05/23 04:19:38;;;;;;;3.35;1.90;;;;;;;15.31;69.94;99218.89;1752110;79;21325;-43
2021/05/23 04:22:06;;;;;;;2.77;1.67;;;;;;;15.32;70.02;99224.55;1764853;78;20944;-43
2021/05/23 04:24:39;;;;;;;3.75;2.33;;;;;;;15.35;69.29;99218.28;1779008;79;21067;-43
2021/05/23 04:27:07;;;;;;;3.90;2.10;;;;;;;15.35;69.67;99219.66;1765873;79;21031;-43
2021/05/23 04:29:34;;;;;;;2.87;2.15;;;;;;;15.37;69.01;99222.78;1773355;79;20972;-43
2021/05/23 04:32:02;;;;;;;4.55;2.08;;;;;;;15.36;69.42;99219.85;1794881;79;21022;-43
2021/05/23 04:34:29;;;;;;;2.80;2.08;;;;;;;15.38;69.93;99222.40;1795991;79;20968;-43
2021/05/23 04:36:56;;;;;;;3.33;1.85;;;;;;;15.44;69.94;99228.99;1795976;79;20940;-43
2021/05/23 04:39:24;;;;;;;2.55;1.80;;;;;;;15.53;69.63;99228.63;1795118;79;21023;-42
2021/05/23 04:41:51;;;;;;;3.33;2.05;;;;;;;15.53;69.22;99223.16;1783827;80;20987;-43
2021/05/23 04:44:18;;;;;;;2.52;1.90;;;;;;;15.50;69.21;99232.89;1764410;79;21592;-43
2021/05/23 04:46:45;;;;;;;4.15;1.90;;;;;;;15.54;69.23;99234.30;1764607;79;21024;-43
2021/05/23 04:49:12;;;;;;;3.05;1.70;;;;;;;15.60;69.32;99241.67;1747944;79;21021;-43
2021/05/23 04:51:39;;;;;;;2.65;2.00;;;;;;;15.65;69.20;99236.38;1746058;82;21078;-42
2021/05/23 04:54:06;;;;;;;5.67;2.00;;;;;;;15.61;68.03;99245.18;1780721;79;21048;-42
2021/05/23 04:56:33;;;;;;;5.37;2.17;;;;;;;15.55;68.31;99247.54;1787836;79;21106;-42
2021/05/23 04:59:00;;;;;;;3.40;1.85;;;;;;;15.57;69.17;99248.52;1726832;83;21063;-43
2021/05/23 05:01:27;;;;;;;4.50;2.00;;;;;;;15.62;68.76;99250.84;1737091;82;20980;-43
2021/05/23 05:03:53;;;;;;;4.95;2.00;;;;;;;15.65;68.36;99258.24;1785465;79;21047;-42
2021/05/23 05:06:20;;;;;;;5.05;2.00;;;;;;;15.66;68.78;99258.44;1772996;79;21557;-43
2021/05/23 05:08:46;;;;;;;8.33;2.02;;;;;;;15.68;68.95;99264.30;1764486;79;21513;-43
2021/05/23 05:11:13;;;;;;;3.95;1.98;;;;;;;15.70;67.24;99260.57;1788378;77;21616;-43
2021/05/23 05:13:40;;;;;;;2.45;2.10;;;;;;;15.72;66.42;99265.06;1837941;78;20950;-43
2021/05/23 05:16:08;;;;;;;3.70;2.00;;;;;;;15.74;66.88;99276.37;1730105;81;21903;-43
2021/05/23 05:18:36;;;;;;;2.83;2.02;;;;;;;15.43;66.48;99232.14;1737955;81;21069;-43
2021/05/23 05:21:04;;;;;;;4.25;2.00;;;;;;;15.71;65.70;99278.53;1754976;81;21015;-43
2021/05/23 05:23:31;;;;;;;4.55;2.15;;;;;;;15.67;65.73;99279.14;1733511;81;21569;-43
2021/05/23 05:26:02;;;;;;;2.75;1.87;;;;;;;15.68;65.94;99283.44;1738366;81;21061;-43
2021/05/23 05:28:29;;;;;;;6.55;1.98;;;;;;;15.71;66.45;99287.31;1726130;81;21069;-43
2021/05/23 05:30:56;;;;;;;3.27;1.90;;;;;;;15.67;66.55;99300.22;1738423;81;21103;-43
2021/05/23 05:33:23;;;;;;;2.80;1.92;;;;;;;15.63;65.76;99301.02;1736710;80;21698;-43
2021/05/23 05:35:49;;;;;;;1.80;1.52;;;;;;;15.64;66.46;99291.63;1738426;81;21090;-43
2021/05/23 05:38:16;;;;;;;2.62;1.95;;;;;;;15.73;66.15;99295.91;1726584;81;20989;-43
2021/05/23 05:40:43;;;;;;;4.58;2.22;;;;;;;15.79;64.50;99301.14;1733059;81;21145;-43
2021/05/23 05:43:11;;;;;;;3.37;2.17;;;;;;;15.78;63.99;99296.88;1726889;81;21034;-43
2021/05/23 05:45:38;;;;;;;3.12;1.95;;;;;;;15.78;65.14;99290.04;1738494;81;21273;-43
2021/05/23 05:48:07;;;;;;;2.27;1.92;;;;;;;15.84;64.93;99304.26;1732224;81;20966;-43
2021/05/23 05:50:34;;;;;;;4.70;1.80;;;;;;;15.86;63.53;99295.09;1735643;81;21087;-43
2021/05/23 05:53:01;;;;;;;2.60;1.67;;;;;;;15.88;62.97;99300.13;1726013;83;21080;-43
2021/05/23 05:55:28;;;;;;;4.25;1.95;;;;;;;15.91;62.73;99312.45;1735715;81;21057;-43
2021/05/23 05:57:55;;;;;;;3.62;1.85;;;;;;;16.02;62.58;99307.70;1742667;81;21718;-43
2021/05/23 06:00:22;;;;;;;4.83;1.98;;;;;;;16.09;62.54;99311.78;1740402;81;20920;-43
2021/05/23 06:02:48;;;;;;;5.97;1.95;;;;;;;16.16;62.65;99311.57;1740901;81;20943;-43
2021/05/23 06:05:15;;;;;;;3.75;1.92;;;;;;;16.27;62.65;99309.55;1725734;83;21098;-43
2021/05/23 06:07:45;;;;;;;2.65;2.10;;;;;;;16.34;62.63;99308.16;1724955;82;21938;-43
2021/05/23 06:10:13;;;;;;;6.78;1.92;;;;;;;16.37;61.71;99312.81;1725417;83;21027;-43
2021/05/23 06:12:40;;;;;;;2.85;1.77;;;;;;;16.38;61.57;99315.75;1730712;81;21034;-43
2021/05/23 06:15:08;;;;;;;3.30;1.52;;;;;;;16.38;60.51;99315.75;1724284;82;21577;-43
2021/05/23 06:17:36;;;;;;;3.30;1.90;;;;;;;16.42;59.83;99313.77;1778805;79;21077;-42
2021/05/23 06:20:05;;;;;;;1.80;1.67;;;;;;;16.46;60.23;99318.62;1775350;79;21564;-43
2021/05/23 06:22:32;;;;;;;3.15;2.08;;;;;;;16.51;59.12;99312.73;1779587;79;20920;-43
2021/05/23 06:24:58;;;;;;;2.95;1.95;;;;;;;16.52;59.57;99310.98;1765929;79;21008;-43
2021/05/23 06:27:25;;;;;;;2.22;1.60;;;;;;;16.56;59.77;99306.06;1744924;79;20984;-43
2021/05/23 06:29:52;;;;;;;3.92;1.95;;;;;;;16.61;59.90;99306.45;1764671;79;21744;-42
2021/05/23 06:32:19;;;;;;;2.92;1.90;;;;;;;16.59;58.72;99309.41;1770728;79;20932;-42
2021/05/23 06:34:46;;;;;;;2.67;1.70;;;;;;;16.61;57.83;99316.62;1771940;79;21586;-43
2021/05/23 06:37:13;;;;;;;3.05;1.95;;;;;;;16.63;59.09;99309.58;1764976;79;21000;-42
2021/05/23 06:39:40;;;;;;;2.77;1.77;;;;;;;16.67;58.61;99302.70;1778196;79;21058;-43
2021/05/23 06:42:09;;;;;;;3.60;2.10;;;;;;;16.73;58.68;99303.26;1769392;79;21126;-43
2021/05/23 06:44:35;;;;;;;2.20;1.57;;;;;;;16.77;57.24;99304.01;1784860;78;21554;-42
2021/05/23 06:47:02;;;;;;;2.72;1.72;;;;;;;16.81;58.01;99289.70;1789608;79;20944;-43
2021/05/23 06:49:29;;;;;;;3.40;1.92;;;;;;;16.87;58.31;99298.27;1726635;83;21135;-43
2021/05/23 06:51:56;;;;;;;2.42;1.50;;;;;;;16.94;57.70;99296.86;1719709;82;21115;-43
2021/05/23 06:54:22;;;;;;;3.10;1.45;;;;;;;17.00;57.98;99305.39;1719866;82;21099;-43
2021/05/23 06:56:50;;;;;;;5.35;1.52;;;;;;;17.04;56.46;99293.84;1711463;82;21145;-43
2021/05/23 06:59:17;;;;;;;1.70;1.42;;;;;;;17.08;55.97;99298.69;1732459;82;21585;-43
2021/05/23 07:01:44;;;;;;;2.55;1.52;;;;;;;17.19;57.92;99303.47;1715761;82;21007;-43
2021/05/23 07:04:11;;;;;;;3.00;1.40;;;;;;;17.26;55.75;99301.46;1734156;82;20979;-43
2021/05/23 07:06:37;;;;;;;1.60;1.20;;;;;;;17.34;54.81;99304.91;1733265;82;21066;-42
2021/05/23 07:09:06;;;;;;;2.83;1.50;;;;;;;17.38;54.43;99306.42;1726920;82;21600;-43
2021/05/23 07:11:34;;;;;;;4.28;1.75;;;;;;;17.45;52.82;99297.36;1724565;82;20980;-43
2021/05/23 07:14:01;;;;;;;1.67;1.20;;;;;;;17.52;51.55;99305.53;1723025;82;21048;-43
2021/05/23 07:16:30;;;;;;;3.37;1.40;;;;;;;17.59;51.73;99303.31;1730738;82;21661;-43
2021/05/23 07:18:57;;;;;;;3.77;1.45;;;;;;;17.64;52.63;99303.66;1714522;82;21589;-42
2021/05/23 07:21:24;;;;;;;3.22;1.30;;;;;;;17.72;51.68;99305.13;1681457;84;21636;-43
2021/05/23 07:23:51;;;;;;;3.72;1.67;;;;;;;17.80;50.26;99302.52;1682329;84;20936;-43
2021/05/23 07:26:19;;;;;;;3.08;1.40;;;;;;;17.86;49.57;99297.95;1692039;84;21085;-43
2021/05/23 07:28:46;;;;;;;2.25;1.20;;;;;;;17.92;50.31;99303.14;1745989;81;20972;-42
2021/05/23 07:31:15;;;;;;;1.90;1.10;;;;;;;17.99;50.05;99305.81;1748406;81;21082;-43
2021/05/23 07:33:42;;;;;;;2.17;1.10;;;;;;;18.06;48.67;99310.61;1738875;80;21585;-42
2021/05/23 07:36:10;;;;;;;3.20;1.12;;;;;;;18.10;47.82;99301.77;1736985;81;20988;-43
2021/05/23 07:38:37;;;;;;;1.47;1.17;;;;;;;18.15;47.55;99305.40;1733621;81;21063;-43
2021/05/23 07:41:04;;;;;;;3.58;1.40;;;;;;;18.23;47.83;99304.73;1734713;81;21101;-43
2021/05/23 07:43:31;;;;;;;3.05;1.20;;;;;;;18.31;49.12;99302.06;1751655;81;21831;-42
2021/05/23 07:46:00;;;;;;;2.70;1.30;;;;;;;18.40;47.48;99296.84;1742499;81;21046;-43
2021/05/23 07:48:27;;;;;;;1.35;1.00;;;;;;;18.47;46.91;99294.02;1743975;81;21007;-43
2021/05/23 07:50:54;;;;;;;3.67;1.40;;;;;;;18.54;46.41;99296.67;1738995;81;20991;-43
2021/05/23 07:53:21;;;;;;;1.87;1.20;;;;;;;18.64;46.87;99298.48;1762373;81;20999;-43
2021/05/23 07:55:47;;;;;;;3.52;1.15;;;;;;;18.75;47.47;99306.57;1753980;81;21111;-43
2021/05/23 07:58:14;;;;;;;1.67;1.10;;;;;;;18.81;47.38;99306.88;1756677;81;21620;-43
2021/05/23 08:00:41;;;;;;;2.30;1.10;;;;;;;18.90;46.51;99311.25;1750324;81;21106;-43
2021/05/23 08:03:08;;;;;;;1.57;0.95;;;;;;;19.03;46.31;99310.84;1741539;81;20987;-43
2021/05/23 08:05:35;;;;;;;1.98;1.20;;;;;;;19.17;45.39;99320.22;1739441;81;21083;-43
2021/05/23 08:08:02;;;;;;;3.27;1.10;;;;;;;19.22;43.64;99322.50;1740993;81;22189;-43
2021/05/23 08:10:29;;;;;;;1.37;0.93;;;;;;;19.23;44.75;99323.28;1746555;81;21023;-43
2021/05/23 08:12:56;;;;;;;2.33;1.20;;;;;;;19.27;42.57;99326.14;1749761;80;21626;-43
2021/05/23 08:15:22;;;;;;;3.10;1.27;;;;;;;19.35;43.53;99326.22;1762801;80;21019;-43
2021/05/23 08:17:53;;;;;;;2.10;1.30;;;;;;;19.50;43.63;99327.56;1752810;80;21525;-43
2021/05/23 08:20:20;;;;;;;1.90;1.25;;;;;;;19.61;42.92;99332.06;1754641;80;21106;-43
2021/05/23 08:22:46;;;;;;;5.67;1.52;;;;;;;19.61;41.55;99334.81;1759389;80;21007;-43
2021/05/23 08:25:14;;;;;;;4.58;1.30;;;;;;;19.52;43.49;99343.02;1748227;80;20967;-43
2021/05/23 08:27:41;;;;;;;1.67;1.10;;;;;;;19.49;44.54;99342.50;1756366;80;21081;-43
2021/05/23 08:30:10;;;;;;;1.65;1.25;;;;;;;19.49;43.02;99338.37;1775936;80;21289;-43
2021/05/23 08:32:37;;;;;;;6.63;1.60;;;;;;;19.43;42.96;99329.02;1777763;80;21650;-43
2021/05/23 08:35:07;;;;;;;2.15;1.27;;;;;;;19.32;42.77;99331.75;1773662;79;20963;-43
2021/05/23 08:37:33;;;;;;;3.17;1.75;;;;;;;19.20;42.01;99325.50;1761260;80;21002;-43
2021/05/23 08:40:02;;;;;;;1.87;1.30;;;;;;;19.18;44.10;99325.91;1748775;80;21825;-43
2021/05/23 08:42:30;;;;;;;2.08;1.30;;;;;;;19.29;43.50;99333.38;1773363;80;20971;-43
2021/05/23 08:44:57;;;;;;;2.50;1.30;;;;;;;19.45;44.35;99341.79;1761929;80;21145;-43
2021/05/23 08:47:25;;;;;;;2.58;1.40;;;;;;;19.63;43.26;99327.71;1750835;80;21560;-43
2021/05/23 08:49:51;;;;;;;2.45;1.20;;;;;;;19.78;44.41;99330.98;1759159;80;21314;-43
2021/05/23 08:52:19;;;;;;;1.85;1.17;;;;;;;19.95;43.52;99321.00;1769104;80;21027;-43
2021/05/23 08:54:48;;;;;;;2.27;1.32;;;;;;;20.07;41.85;99333.95;1753917;80;21091;-43
2021/05/23 08:57:22;;;;;;;2.98;1.30;;;;;;;20.02;42.38;99324.22;1751601;80;21076;-43
2021/05/23 08:59:51;;;;;;;3.83;1.40;;;;;;;19.95;42.84;99320.22;1758663;80;21070;-43
2021/05/23 09:02:17;;;;;;;2.92;1.40;;;;;;;19.96;43.54;99318.42;1761889;80;20986;-43
2021/05/23 09:04:50;;;;;;;4.03;1.40;;;;;;;20.06;41.66;99314.50;1755227;80;20967;-43
2021/05/23 09:07:17;;;;;;;2.92;1.40;;;;;;;20.17;42.47;99314.47;1773729;80;21063;-43
2021/05/23 09:09:46;;;;;;;2.70;1.60;;;;;;;20.31;40.65;99308.70;1751203;80;20999;-43
2021/05/23 09:12:16;;;;;;;2.55;1.42;;;;;;;20.45;39.15;99312.34;1754920;80;21034;-43
2021/05/23 09:14:50;;;;;;;5.33;1.47;;;;;;;20.51;40.80;99301.00;1751903;80;21023;-43
2021/05/23 09:17:27;;;;;;;3.55;1.50;;;;;;;20.63;40.05;99307.20;1744573;80;21033;-43
2021/05/23 09:19:55;;;;;;;2.22;1.47;;;;;;;20.70;39.09;99312.56;1740908;80;21911;-43
2021/05/23 09:22:26;;;;;;;4.05;1.30;;;;;;;20.68;40.43;99306.69;1745600;80;21078;-43
2021/05/23 09:25:01;;;;;;;3.33;1.35;;;;;;;20.66;38.30;99312.65;1759453;81;21581;-43
2021/05/23 09:27:31;;;;;;;2.22;1.05;;;;;;;20.69;38.29;99312.38;1764419;80;21040;-43
2021/05/23 09:30:20;;;;;;;1.70;1.17;;;;;;;20.69;38.67;99311.00;1759737;80;21606;-43
2021/05/23 09:32:44;;;;;;;2.35;1.30;;;;;;;20.71;38.83;99309.39;1756351;80;21007;-43
2021/05/23 09:35:11;;;;;;;1.72;1.15;;;;;;;20.80;39.60;99312.33;1752877;80;21080;-43
2021/05/23 09:37:38;;;;;;;2.00;1.10;;;;;;;20.99;38.87;99306.56;1750659;80;20976;-43
2021/05/23 09:40:19;;;;;;;3.00;1.35;;;;;;;21.14;38.78;99321.58;1747569;80;21532;-43
2021/05/23 09:42:53;;;;;;;1.72;1.20;;;;;;;21.25;38.48;99306.91;1764800;80;21061;-43
2021/05/23 09:45:21;;;;;;;4.37;1.25;;;;;;;21.30;37.07;99306.23;1755057;80;21418;-43
2021/05/23 09:47:58;;;;;;;2.90;1.22;;;;;;;21.33;37.81;99290.97;1741924;80;21639;-43
2021/05/23 09:50:40;;;;;;;2.02;1.22;;;;;;;21.38;37.78;99302.08;1759406;80;21546;-43
2021/05/23 09:53:24;;;;;;;3.42;1.40;;;;;;;21.48;37.69;99299.65;1772814;80;20904;-43
2021/05/23 09:55:56;;;;;;;1.85;1.05;;;;;;;21.61;35.88;99303.23;1769703;80;21011;-43
2021/05/23 09:58:34;;;;;;;2.40;1.20;;;;;;;21.61;34.85;99311.50;1760002;80;21047;-43
2021/05/23 10:01:00;;;;;;;1.77;1.12;;;;;;;21.56;36.24;99302.38;1750752;80;21153;-43
2021/05/23 10:03:32;;;;;;;3.77;1.50;;;;;;;21.55;35.55;99300.82;1728635;82;20999;-43
2021/05/23 10:06:00;;;;;;;2.90;1.30;;;;;;;21.57;35.58;99301.95;1754138;80;21075;-43
2021/05/23 10:08:28;;;;;;;3.02;1.50;;;;;;;21.66;36.64;99304.08;1754422;80;21027;-43
2021/05/23 10:10:55;;;;;;;1.67;1.20;;;;;;;21.85;37.69;99307.90;1733819;80;21043;-43
2021/05/23 10:13:24;;;;;;;2.95;1.22;;;;;;;22.07;35.73;99305.50;1761364;80;21724;-43
2021/05/23 10:15:52;;;;;;;2.05;1.20;;;;;;;22.18;35.13;99305.80;1758279;80;20947;-43
2021/05/23 10:18:21;;;;;;;2.77;1.25;;;;;;;22.21;35.79;99310.47;1753348;80;21585;-43
2021/05/23 10:20:56;;;;;;;2.70;1.00;;;;;;;22.19;35.37;99308.73;1768991;80;20966;-43
2021/05/23 10:23:28;;;;;;;1.75;1.20;;;;;;;22.17;35.90;99311.19;1752007;80;21553;-43
2021/05/23 10:27:24;;;;;;;2.60;1.15;;;;;;;22.24;33.64;99304.05;1755358;79;22518;-43
2021/05/23 10:29:54;;;;;;;2.58;1.37;;;;;;;22.22;34.90;99309.26;1730139;82;20955;-43
2021/05/23 10:32:23;;;;;;;;;;;;;;;22.32;33.75;99312.29;1723650;82;21082;-43
2021/05/23 10:34:49;;;;;;;2.00;1.00;;;;;;;22.43;34.43;99306.63;1733621;82;20225;-43
2021/05/23 10:37:29;;;;;;;1.98;1.20;;;;;;;22.49;32.03;99302.71;1732983;82;21027;-43
2021/05/23 10:39:57;;;;;;;3.15;1.20;;;;;;;22.69;33.91;99304.66;1697526;82;21707;-43
2021/05/23 10:42:28;;;;;;;2.27;1.12;;;;;;;22.87;33.24;99318.72;1718373;82;20983;-43
2021/05/23 10:44:56;;;;;;;2.27;1.10;;;;;;;22.99;32.61;99316.39;1729220;82;21140;-42
2021/05/23 10:47:30;;;;;;;2.65;1.17;;;;;;;23.04;32.34;99305.55;1718194;82;20995;-43
2021/05/23 10:50:06;;;;;;;3.10;1.17;;;;;;;23.07;32.33;99310.79;1732787;82;21636;-43
2021/05/23 10:52:34;;;;;;;2.80;1.20;;;;;;;23.08;32.09;99308.97;1733916;82;21565;-43
2021/05/23 10:55:09;;;;;;;1.87;1.20;;;;;;;23.15;31.50;99313.47;1721213;82;21565;-43
2021/05/23 10:57:49;;;;;;;1.52;1.02;;;;;;;23.22;30.75;99309.10;1724052;82;21522;-43
2021/05/23 11:00:35;;;;;;;2.77;1.27;;;;;;;23.29;30.88;99303.31;1741192;82;21585;-43
2021/05/23 11:03:13;;;;;;;2.72;1.20;;;;;;;23.41;32.43;99316.36;1732170;82;21050;-43
2021/05/23 11:05:41;;;;;;;2.72;1.10;;;;;;;23.51;31.16;99318.62;1728666;82;20971;-43
2021/05/23 11:08:11;;;;;;;1.98;1.42;;;;;;;23.53;31.00;99306.52;1738464;82;21043;-43
2021/05/23 11:10:50;;;;;;;1.47;1.25;;;;;;;23.38;30.56;99320.03;1732775;82;21676;-43
2021/05/23 11:13:35;;;;;;;2.12;1.17;;;;;;;23.10;31.03;99321.73;1744726;82;21035;-43
2021/05/23 11:16:17;;;;;;;2.02;1.10;;;;;;;22.92;31.82;99314.02;1735315;82;21006;-43
2021/05/23 11:18:46;;;;;;;1.85;0.80;;;;;;;22.98;31.62;99318.98;1727965;82;21034;-43
2021/05/23 11:21:15;;;;;;;1.20;1.05;;;;;;;23.20;31.50;99302.63;1735225;82;21058;-43
2021/05/23 11:23:54;;;;;;;1.32;1.00;;;;;;;23.53;30.11;99307.26;1741059;82;21022;-43
2021/05/23 11:26:23;;;;;;;2.15;1.25;;;;;;;23.80;29.88;99302.57;1742761;81;21039;-44
2021/05/23 11:28:54;;;;;;;2.02;1.20;;;;;;;24.00;30.17;99312.72;1700537;82;21628;-43
2021/05/23 11:31:27;;;;;;;2.85;1.10;;;;;;;24.13;29.03;99307.09;1724345;82;21599;-43
2021/05/23 11:33:55;;;;;;;1.05;0.93;;;;;;;24.18;29.42;99310.09;1726150;82;21094;-43
2021/05/23 11:36:24;;;;;;;1.07;0.80;;;;;;;23.98;29.95;99314.37;1724709;82;21069;-43
2021/05/23 11:38:56;;;;;;;2.08;1.05;;;;;;;23.86;29.09;99313.84;1748071;82;20971;-43
2021/05/23 11:41:30;;;;;;;1.98;0.88;;;;;;;23.62;29.49;99308.75;1738612;82;20975;-43
2021/05/23 11:43:58;;;;;;;1.77;1.25;;;;;;;23.65;29.39;99316.14;1725539;82;20979;-44